Time;durP1;ratioP1;P1;durP2;ratioP2;P2;SDS_P1;SDS_P2;PMS_P1;PMS_P2;Temp;Humidity;BMP_temperature;BMP_pressure;BME280_temperature;BME280_humidity;BME280_pressure;Samples;Min_cycle;Max_cycle;Signal;HPM_P1;HPM_P2
2021/11/02 00:01:46;;;;;;;3.90;3.00;;;7.00;99.90;;;;;;5050988;28;20233;-70
2021/11/02 00:04:14;;;;;;;4.30;2.95;;;7.10;99.90;;;;;;5050940;28;20213;-70
2021/11/02 00:06:40;;;;;;;4.43;2.85;;;7.10;99.90;;;;;;5050562;28;20229;-70
2021/11/02 00:09:07;;;;;;;2.58;2.35;;;7.10;99.90;;;;;;5051032;28;20201;-70
2021/11/02 00:11:35;;;;;;;3.60;2.30;;;7.10;99.90;;;;;;5050896;28;20300;-70
2021/11/02 00:14:08;;;;;;;5.13;2.45;;;7.10;99.90;;;;;;5050587;28;20205;-70
2021/11/02 00:16:35;;;;;;;3.35;2.20;;;7.20;99.90;;;;;;5050537;28;20217;-70
2021/11/02 00:19:03;;;;;;;2.58;2.20;;;7.20;99.90;;;;;;5050716;28;20765;-70
2021/11/02 00:21:34;;;;;;;3.72;2.33;;;7.30;99.90;;;;;;5050968;28;20229;-70
2021/11/02 00:24:10;;;;;;;3.40;2.47;;;7.30;99.90;;;;;;5050866;28;20197;-70
2021/11/02 00:26:37;;;;;;;2.72;2.40;;;7.30;99.90;;;;;;5050757;28;20248;-70
2021/11/02 00:29:04;;;;;;;4.00;2.25;;;7.40;99.90;;;;;;5050900;28;20213;-70
2021/11/02 00:31:31;;;;;;;3.53;2.10;;;7.30;99.90;;;;;;5052011;28;20212;-71
2021/11/02 00:33:58;;;;;;;3.85;2.15;;;7.30;99.90;;;;;;5052405;28;20224;-70
2021/11/02 00:36:25;;;;;;;4.97;2.40;;;7.40;99.90;;;;;;5050686;28;20228;-70
2021/11/02 00:38:53;;;;;;;3.15;2.28;;;7.40;99.90;;;;;;5051263;28;20211;-70
2021/11/02 00:41:20;;;;;;;2.58;2.00;;;7.30;99.90;;;;;;5050975;28;20569;-70
2021/11/02 00:43:48;;;;;;;3.28;2.35;;;7.30;99.90;;;;;;5051368;28;20207;-70
2021/11/02 00:46:15;;;;;;;3.90;2.35;;;7.30;99.90;;;;;;5050405;28;20217;-70
2021/11/02 00:48:41;;;;;;;3.75;2.70;;;7.30;99.90;;;;;;5050584;28;20200;-70
2021/11/02 00:51:08;;;;;;;2.35;2.13;;;7.40;99.90;;;;;;5050421;28;20200;-70
2021/11/02 00:53:35;;;;;;;3.97;2.05;;;7.40;99.90;;;;;;5050244;28;20197;-70
2021/11/02 00:56:03;;;;;;;2.95;1.95;;;7.40;99.90;;;;;;5050015;28;20243;-70
2021/11/02 00:58:30;;;;;;;2.47;2.28;;;7.50;99.90;;;;;;5050138;28;20232;-70
2021/11/02 01:00:56;;;;;;;3.38;2.20;;;7.50;99.90;;;;;;5050090;28;20682;-70
2021/11/02 01:03:23;;;;;;;3.15;2.30;;;7.50;99.90;;;;;;5050066;28;20205;-70
2021/11/02 01:05:50;;;;;;;3.63;2.10;;;7.50;99.90;;;;;;5049631;28;20283;-70
2021/11/02 01:08:17;;;;;;;2.47;2.28;;;7.50;99.90;;;;;;5050448;28;20201;-70
2021/11/02 01:10:47;;;;;;;2.45;1.70;;;7.40;99.90;;;;;;5050452;28;20205;-70
2021/11/02 01:13:16;;;;;;;2.13;1.85;;;7.50;99.90;;;;;;5049924;28;20201;-71
2021/11/02 01:15:42;;;;;;;5.22;2.22;;;7.40;99.90;;;;;;5050118;28;20221;-70
2021/11/02 01:18:09;;;;;;;4.90;2.45;;;7.40;99.90;;;;;;5049934;28;20676;-70
2021/11/02 01:20:36;;;;;;;4.65;2.25;;;7.50;99.90;;;;;;5050190;28;20724;-70
2021/11/02 01:23:03;;;;;;;2.13;1.85;;;7.50;99.90;;;;;;5049815;28;20605;-70
2021/11/02 01:25:30;;;;;;;2.65;2.00;;;7.40;99.90;;;;;;5048941;28;20221;-70
2021/11/02 01:27:57;;;;;;;2.20;2.00;;;7.40;99.90;;;;;;5049492;28;20699;-69
2021/11/02 01:30:25;;;;;;;2.75;2.10;;;7.50;99.90;;;;;;5049879;28;20232;-70
2021/11/02 01:32:51;;;;;;;2.30;2.05;;;7.50;99.90;;;;;;5050113;28;20606;-70
2021/11/02 01:35:18;;;;;;;2.67;2.08;;;7.50;99.90;;;;;;5049308;28;20204;-70
2021/11/02 01:37:46;;;;;;;2.50;1.90;;;7.50;99.90;;;;;;5049518;28;20208;-70
2021/11/02 01:40:17;;;;;;;6.53;2.13;;;7.50;99.90;;;;;;5049587;28;20209;-70
2021/11/02 01:42:44;;;;;;;3.67;2.13;;;7.50;99.90;;;;;;5048244;28;20232;-69
2021/11/02 01:45:12;;;;;;;3.38;1.80;;;7.50;99.90;;;;;;5091776;22;20233;-74
2021/11/02 01:47:45;;;;;;;2.65;1.70;;;7.60;99.90;;;;;;5029659;28;20206;-74
2021/11/02 01:50:13;;;;;;;2.30;2.10;;;7.50;99.90;;;;;;5030590;28;20212;-75
2021/11/02 01:52:40;;;;;;;3.85;2.20;;;7.50;99.90;;;;;;5030029;28;20634;-74
2021/11/02 01:55:09;;;;;;;2.63;1.90;;;7.50;99.90;;;;;;5029799;28;20280;-74
2021/11/02 01:57:35;;;;;;;3.00;2.22;;;7.50;99.90;;;;;;5029430;28;20259;-74
2021/11/02 02:00:03;;;;;;;2.40;1.85;;;7.50;99.90;;;;;;5026388;28;20696;-74
2021/11/02 02:02:34;;;;;;;4.00;1.95;;;7.40;99.90;;;;;;5028962;28;20723;-74
2021/11/02 02:05:22;;;;;;;1.80;1.50;;;7.40;99.90;;;;;;5030370;28;20205;-74
2021/11/02 02:08:07;;;;;;;2.08;1.70;;;7.40;99.90;;;;;;5030010;28;20230;-74
2021/11/02 02:10:47;;;;;;;2.45;1.55;;;7.40;99.90;;;;;;5029950;28;20209;-74
2021/11/02 02:13:22;;;;;;;2.47;1.40;;;7.40;99.90;;;;;;5030123;28;20193;-72
2021/11/02 02:15:57;;;;;;;2.17;1.70;;;7.40;99.90;;;;;;5029172;28;20213;-71
2021/11/02 02:18:31;;;;;;;2.00;1.52;;;7.40;99.90;;;;;;5030549;28;20566;-72
2021/11/02 02:21:19;;;;;;;3.95;1.50;;;7.40;99.90;;;;;;5030201;28;20206;-73
2021/11/02 02:24:05;;;;;;;2.65;1.50;;;7.40;99.90;;;;;;5030342;28;20217;-73
2021/11/02 02:26:39;;;;;;;4.30;1.65;;;7.40;99.90;;;;;;5029574;28;20226;-72
2021/11/02 02:29:08;;;;;;;2.85;1.70;;;7.40;99.90;;;;;;5030506;28;20206;-72
2021/11/02 02:31:39;;;;;;;3.80;2.10;;;7.30;99.90;;;;;;5030199;28;20209;-73
2021/11/02 02:34:11;;;;;;;1.77;1.52;;;7.30;99.90;;;;;;5031329;28;20209;-72
2021/11/02 02:36:39;;;;;;;2.22;1.85;;;7.20;99.90;;;;;;5030239;28;20740;-72
2021/11/02 02:39:09;;;;;;;5.70;1.80;;;7.10;99.90;;;;;;5034002;28;20198;-72
2021/11/02 02:41:38;;;;;;;2.00;1.80;;;7.10;99.90;;;;;;5033602;28;20646;-73
2021/11/02 02:44:08;;;;;;;2.22;1.73;;;7.10;99.90;;;;;;5033231;28;20205;-72
2021/11/02 02:46:36;;;;;;;3.40;1.80;;;7.10;99.90;;;;;;5032723;28;20583;-72
2021/11/02 02:49:04;;;;;;;2.40;2.20;;;7.10;99.90;;;;;;5033680;28;20204;-72
2021/11/02 02:51:34;;;;;;;1.88;1.50;;;7.10;99.90;;;;;;5033233;28;20716;-72
2021/11/02 02:54:01;;;;;;;2.88;1.90;;;7.10;99.90;;;;;;5033455;28;20227;-72
2021/11/02 02:56:31;;;;;;;3.47;2.20;;;7.10;99.90;;;;;;5095472;22;20303;-74
2021/11/02 02:59:02;;;;;;;2.90;1.90;;;7.10;99.90;;;;;;5032895;28;20198;-73
2021/11/02 03:01:31;;;;;;;3.25;2.40;;;7.10;99.90;;;;;;5033014;28;20661;-75
2021/11/02 03:04:06;;;;;;;4.75;2.05;;;7.00;99.90;;;;;;5033009;28;20212;-75
2021/11/02 03:06:39;;;;;;;2.28;1.50;;;7.00;99.90;;;;;;5032593;28;20225;-75
2021/11/02 03:09:07;;;;;;;6.03;1.98;;;7.00;99.90;;;;;;5033038;28;20221;-76
2021/11/02 03:11:36;;;;;;;2.78;1.80;;;7.10;99.90;;;;;;5033162;28;20205;-76
2021/11/02 03:14:07;;;;;;;2.45;1.98;;;7.00;99.90;;;;;;5032640;28;20248;-76
2021/11/02 03:16:45;;;;;;;4.43;2.05;;;7.00;99.90;;;;;;5031994;28;20716;-76
2021/11/02 03:50:13;;;;;;;2.28;2.00;;;6.70;99.90;;;;;;5129075;27;20205;-73
2021/11/02 03:55:29;;;;;;;1.63;1.52;;;6.60;99.90;;;;;;5128721;27;20236;-73
2021/11/02 03:58:00;;;;;;;2.40;1.80;;;6.60;99.90;;;;;;5128407;27;20211;-73
2021/11/02 04:00:43;;;;;;;2.17;1.45;;;6.60;99.90;;;;;;5128718;27;20578;-73
2021/11/02 04:28:17;;;;;;;1.52;1.42;;;6.50;99.90;;;;;;5128465;27;20623;-73
2021/11/02 04:30:57;;;;;;;2.65;1.50;;;6.40;99.90;;;;;;5128404;27;20667;-74
2021/11/02 05:07:39;;;;;;;3.40;1.75;;;6.20;99.90;;;;;;5085852;28;20744;-74
2021/11/02 05:10:43;;;;;;;2.03;1.83;;;6.10;99.90;;;;;;5087575;28;20215;-74
2021/11/02 05:49:18;;;;;;;4.00;2.05;;;5.80;99.90;;;;;;5066865;28;20248;-73
2021/11/02 05:52:13;;;;;;;3.75;1.90;;;5.70;99.90;;;;;;5066794;28;20615;-73
2021/11/02 05:57:29;;;;;;;3.70;2.00;;;5.70;99.90;;;;;;5065602;28;20238;-73
2021/11/02 06:00:00;;;;;;;2.47;1.60;;;5.80;99.90;;;;;;5062853;28;20204;-73
2021/11/02 06:27:59;;;;;;;2.70;1.80;;;5.20;99.90;;;;;;5052667;28;20199;-73
2021/11/02 06:30:34;;;;;;;2.85;1.80;;;5.10;99.90;;;;;;5052562;28;20207;-73
2021/11/02 06:33:06;;;;;;;2.13;1.92;;;5.20;99.90;;;;;;5052990;28;20208;-73
2021/11/02 06:35:36;;;;;;;3.28;2.30;;;5.20;99.90;;;;;;5052415;28;20225;-73
2021/11/02 06:38:41;;;;;;;1.90;1.70;;;5.30;99.90;;;;;;5052300;28;20603;-73
2021/11/02 06:50:12;;;;;;;2.42;1.80;;;5.20;99.90;;;;;;5038983;28;20247;-73
2021/11/02 06:56:18;;;;;;;2.20;1.80;;;5.30;99.90;;;;;;5051808;28;20210;-73
2021/11/02 07:16:13;;;;;;;4.00;2.00;;;5.60;99.90;;;;;;5071294;28;20341;-73
2021/11/02 07:18:42;;;;;;;2.08;1.80;;;5.80;99.90;;;;;;5071568;28;20203;-73
2021/11/02 07:21:14;;;;;;;2.97;2.38;;;6.00;99.90;;;;;;5071843;28;20653;-73
2021/11/02 07:23:51;;;;;;;1.73;1.60;;;6.30;99.90;;;;;;5071533;28;20297;-73
2021/11/02 07:26:32;;;;;;;3.15;2.30;;;6.80;99.90;;;;;;5071184;28;20228;-73
2021/11/02 08:47:07;;;;;;;1.85;1.40;;;10.80;99.90;;;;;;5011112;28;20237;-69
2021/11/02 08:49:40;;;;;;;2.35;1.52;;;10.30;99.90;;;;;;5011609;28;20264;-69
2021/11/02 08:52:07;;;;;;;2.15;1.55;;;10.00;99.90;;;;;;5011573;28;20198;-69
2021/11/02 08:54:36;;;;;;;3.05;1.50;;;9.70;99.90;;;;;;5011040;28;20580;-69
2021/11/02 08:57:05;;;;;;;1.92;1.38;;;9.50;99.90;;;;;;5009829;28;20230;-69
2021/11/02 08:59:33;;;;;;;1.38;1.23;;;9.40;99.90;;;;;;5010645;28;20210;-69
2021/11/02 09:02:02;;;;;;;2.33;1.15;;;9.40;99.90;;;;;;5010433;28;20203;-69
2021/11/02 09:04:31;;;;;;;2.28;1.33;;;9.40;99.90;;;;;;5010655;28;20281;-69
2021/11/02 09:07:02;;;;;;;1.83;1.30;;;9.40;99.90;;;;;;5009696;28;20233;-69
2021/11/02 09:09:32;;;;;;;3.53;1.55;;;9.40;99.90;;;;;;5010355;28;20222;-68
2021/11/02 09:12:02;;;;;;;3.10;1.60;;;9.40;99.90;;;;;;5010078;28;20211;-69
2021/11/02 09:14:32;;;;;;;1.50;1.30;;;9.20;99.90;;;;;;5009625;28;20210;-69
2021/11/02 09:16:59;;;;;;;3.58;1.50;;;9.00;99.90;;;;;;5008911;28;20241;-68
2021/11/02 09:19:28;;;;;;;2.17;1.60;;;8.80;99.90;;;;;;5010126;28;20206;-68
2021/11/02 09:21:56;;;;;;;4.13;1.50;;;8.60;99.90;;;;;;5009288;28;20247;-68
2021/11/02 09:24:23;;;;;;;2.65;1.70;;;8.50;99.90;;;;;;5025284;28;20213;-68
2021/11/02 09:26:51;;;;;;;3.22;1.85;;;8.40;99.90;;;;;;5028886;28;20592;-68
2021/11/02 09:29:19;;;;;;;2.08;1.58;;;8.50;99.90;;;;;;5029316;28;20228;-68
2021/11/02 09:31:47;;;;;;;1.75;1.50;;;8.40;99.90;;;;;;5026763;28;20209;-68
2021/11/02 09:34:14;;;;;;;2.42;1.33;;;8.30;99.90;;;;;;5028772;28;20205;-68
2021/11/02 09:36:45;;;;;;;3.13;1.50;;;8.40;99.90;;;;;;5031701;28;20275;-69
2021/11/02 09:39:13;;;;;;;2.78;1.60;;;8.30;99.90;;;;;;5032844;28;20197;-68
2021/11/02 09:42:10;;;;;;;3.28;1.98;;;8.20;99.90;;;;;;5032898;28;20201;-69
2021/11/02 09:45:17;;;;;;;1.50;1.30;;;8.20;99.90;;;;;;5032331;28;20720;-68
2021/11/02 09:48:33;;;;;;;2.75;1.80;;;8.00;99.90;;;;;;5032076;28;20248;-69
2021/11/02 09:51:40;;;;;;;2.55;1.60;;;7.90;99.90;;;;;;5031989;28;20233;-69
2021/11/02 09:54:46;;;;;;;3.05;1.70;;;7.80;99.90;;;;;;5032342;28;20213;-69
2021/11/02 09:57:57;;;;;;;3.25;1.75;;;7.80;99.90;;;;;;5032127;28;20236;-68
2021/11/02 10:00:49;;;;;;;2.83;1.88;;;7.80;99.90;;;;;;5032879;28;20213;-68
2021/11/02 10:03:48;;;;;;;4.00;1.83;;;7.80;99.90;;;;;;5029782;28;20267;-69
2021/11/02 10:06:46;;;;;;;2.00;1.70;;;7.80;99.90;;;;;;5031890;28;20228;-69
2021/11/02 10:09:32;;;;;;;2.05;1.58;;;7.80;99.90;;;;;;5032070;28;20221;-69
2021/11/02 10:12:05;;;;;;;1.75;1.40;;;7.70;99.90;;;;;;5031894;28;20208;-68
2021/11/02 10:14:50;;;;;;;2.05;1.77;;;7.80;99.90;;;;;;5031926;28;20206;-68
2021/11/02 10:17:49;;;;;;;2.20;2.00;;;7.80;99.90;;;;;;5031650;28;20229;-68
2021/11/02 10:20:32;;;;;;;1.50;1.40;;;7.70;99.90;;;;;;5031973;28;20194;-68
2021/11/02 10:23:15;;;;;;;2.70;1.90;;;7.80;99.90;;;;;;5032221;28;20610;-69
2021/11/02 10:26:20;;;;;;;2.15;1.70;;;7.70;99.90;;;;;;5031385;28;20229;-68
2021/11/02 10:29:17;;;;;;;3.78;2.28;;;7.70;99.90;;;;;;5029432;28;20210;-68
2021/11/02 10:31:49;;;;;;;2.28;1.70;;;7.80;99.90;;;;;;5031968;28;20197;-69
2021/11/02 10:34:30;;;;;;;1.83;1.67;;;7.80;99.90;;;;;;5032112;28;20252;-68
2021/11/02 10:37:12;;;;;;;2.78;2.10;;;7.80;99.90;;;;;;5031156;28;20217;-69
2021/11/02 10:39:55;;;;;;;2.08;1.88;;;7.80;99.90;;;;;;5032079;28;20572;-69
2021/11/02 10:42:36;;;;;;;3.78;1.92;;;7.90;99.90;;;;;;5031285;28;20214;-68
2021/11/02 10:45:08;;;;;;;2.10;1.90;;;7.90;99.90;;;;;;5030679;28;20564;-68
2021/11/02 10:47:44;;;;;;;2.80;2.25;;;8.00;99.90;;;;;;5031251;28;20206;-68
2021/11/02 10:50:12;;;;;;;3.28;1.90;;;8.00;99.90;;;;;;5031320;28;20232;-69
2021/11/02 10:52:41;;;;;;;4.55;2.17;;;8.00;99.90;;;;;;5032541;28;20202;-69
2021/11/02 10:55:23;;;;;;;2.22;1.70;;;8.00;99.90;;;;;;5033003;28;20297;-69
2021/11/02 10:58:25;;;;;;;4.82;1.90;;;8.00;99.90;;;;;;5032658;28;20201;-69
2021/11/02 11:00:52;;;;;;;2.28;1.70;;;8.10;99.90;;;;;;5032010;28;21013;-69
2021/11/02 11:03:27;;;;;;;2.30;1.73;;;8.20;99.90;;;;;;5032564;28;20206;-69
2021/11/02 11:05:57;;;;;;;3.22;1.90;;;8.20;99.90;;;;;;5027151;28;20225;-68
2021/11/02 11:08:31;;;;;;;2.10;1.90;;;8.20;99.90;;;;;;5032388;28;20201;-68
2021/11/02 11:10:59;;;;;;;1.83;1.50;;;8.20;99.90;;;;;;5032378;28;20226;-68
2021/11/02 11:13:28;;;;;;;2.72;1.80;;;8.30;99.90;;;;;;5031117;28;20452;-69
2021/11/02 11:16:07;;;;;;;2.90;1.70;;;8.30;99.90;;;;;;5032253;28;20217;-69
2021/11/02 11:18:44;;;;;;;4.30;1.83;;;8.40;99.90;;;;;;5032979;28;20881;-69
2021/11/02 11:21:12;;;;;;;2.20;1.88;;;8.40;99.90;;;;;;5033045;28;20571;-69
2021/11/02 11:23:44;;;;;;;2.05;1.52;;;8.40;99.90;;;;;;5032958;28;20281;-68
2021/11/02 11:26:11;;;;;;;1.85;1.52;;;8.50;99.90;;;;;;5031950;28;20222;-68
2021/11/02 11:28:39;;;;;;;2.15;1.65;;;8.60;99.90;;;;;;5032551;28;20229;-68
2021/11/02 11:31:08;;;;;;;2.38;1.90;;;8.70;99.90;;;;;;5032031;28;20230;-69
2021/11/02 11:33:35;;;;;;;2.90;1.88;;;8.70;99.90;;;;;;5032496;28;20584;-68
2021/11/02 11:36:03;;;;;;;2.35;1.55;;;8.70;99.90;;;;;;5031530;28;20226;-69
2021/11/02 11:38:37;;;;;;;3.33;2.00;;;8.70;99.90;;;;;;5032353;28;20558;-69
2021/11/02 11:41:07;;;;;;;2.00;1.80;;;8.80;99.90;;;;;;5032050;28;20256;-69
2021/11/02 11:43:35;;;;;;;1.30;1.20;;;9.10;99.90;;;;;;5032440;28;20201;-68
2021/11/02 11:46:04;;;;;;;2.25;1.75;;;9.40;99.90;;;;;;5031431;28;20252;-68
2021/11/02 11:48:32;;;;;;;2.72;1.75;;;9.50;99.90;;;;;;5032164;28;20214;-69
2021/11/02 11:51:01;;;;;;;1.50;1.40;;;9.60;99.90;;;;;;5031855;28;20226;-69
2021/11/02 11:53:30;;;;;;;2.35;1.60;;;9.50;99.90;;;;;;5032056;28;20208;-68
2021/11/02 11:56:07;;;;;;;2.55;1.70;;;9.50;99.90;;;;;;5031092;28;20244;-69
2021/11/02 11:58:35;;;;;;;1.70;1.42;;;9.50;99.90;;;;;;5031442;28;20205;-69
2021/11/02 12:01:08;;;;;;;2.20;1.20;;;9.40;99.90;;;;;;5031274;28;20216;-69
2021/11/02 12:03:46;;;;;;;2.55;1.30;;;9.30;99.90;;;;;;5031565;28;20202;-69
2021/11/02 12:06:20;;;;;;;1.70;1.20;;;9.30;99.90;;;;;;5030913;28;20225;-68
2021/11/02 12:08:53;;;;;;;1.40;1.30;;;9.30;99.90;;;;;;5031449;28;20205;-69
2021/11/02 12:11:24;;;;;;;2.22;1.20;;;9.30;99.90;;;;;;5031472;28;20590;-68
2021/11/02 12:14:00;;;;;;;1.58;1.15;;;9.20;99.90;;;;;;5028873;28;20221;-68
2021/11/02 12:16:34;;;;;;;1.40;1.00;;;9.20;99.90;;;;;;5030666;28;20217;-69
2021/11/02 12:19:05;;;;;;;1.13;0.90;;;9.10;99.90;;;;;;5031239;28;20205;-69
2021/11/02 12:21:34;;;;;;;1.00;0.90;;;9.00;99.90;;;;;;5031152;28;20684;-69
2021/11/02 12:24:04;;;;;;;1.05;0.80;;;9.00;99.90;;;;;;5030829;28;20702;-69
2021/11/02 12:26:46;;;;;;;2.28;0.95;;;9.00;99.90;;;;;;5030664;28;20257;-68
2021/11/02 12:29:20;;;;;;;1.00;0.90;;;8.90;99.90;;;;;;5031067;28;20202;-68
2021/11/02 12:31:55;;;;;;;0.82;0.80;;;8.90;99.90;;;;;;5031003;28;20924;-69
2021/11/02 12:34:24;;;;;;;1.30;0.98;;;9.00;99.90;;;;;;5031151;28;20201;-68
2021/11/02 12:36:54;;;;;;;1.05;0.80;;;9.00;99.90;;;;;;5030200;28;20256;-68
2021/11/02 12:39:26;;;;;;;1.67;0.95;;;9.00;99.90;;;;;;5030917;28;20681;-70
2021/11/02 12:41:57;;;;;;;0.80;0.70;;;9.10;99.90;;;;;;5030757;28;20209;-69
2021/11/02 12:44:28;;;;;;;1.55;0.70;;;9.00;99.90;;;;;;5030952;28;20201;-68
2021/11/02 12:46:55;;;;;;;1.38;0.70;;;9.00;99.90;;;;;;5030122;28;20222;-68
2021/11/02 12:49:33;;;;;;;1.17;0.60;;;9.00;99.90;;;;;;5031178;28;20209;-69
2021/11/02 12:52:04;;;;;;;0.90;0.80;;;9.20;99.90;;;;;;5030747;28;20214;-69
2021/11/02 12:54:32;;;;;;;0.70;0.60;;;9.50;99.90;;;;;;5031016;28;20205;-69
2021/11/02 12:57:03;;;;;;;1.33;0.75;;;10.00;99.90;;;;;;5032377;28;20251;-70
2021/11/02 12:59:35;;;;;;;0.80;0.68;;;10.70;99.90;;;;;;5032314;28;20201;-69
2021/11/02 13:02:16;;;;;;;0.80;0.70;;;11.00;99.90;;;;;;5031164;28;20206;-69
2021/11/02 13:04:45;;;;;;;1.10;0.75;;;11.00;99.90;;;;;;5031395;28;20212;-69
2021/11/02 13:07:14;;;;;;;0.90;0.70;;;10.80;99.90;;;;;;5030712;28;20222;-69
2021/11/02 13:09:41;;;;;;;0.97;0.80;;;10.60;99.90;;;;;;5031212;28;20232;-69
2021/11/02 13:12:11;;;;;;;1.10;0.80;;;10.40;99.90;;;;;;5034914;28;20688;-69
2021/11/02 13:14:40;;;;;;;1.75;0.90;;;10.30;99.90;;;;;;5034585;28;20224;-69
2021/11/02 13:17:09;;;;;;;2.08;0.80;;;10.20;99.90;;;;;;5033645;28;20610;-69
2021/11/02 13:19:38;;;;;;;1.15;0.80;;;10.00;99.90;;;;;;5034554;28;20210;-69
2021/11/02 13:22:14;;;;;;;1.10;0.82;;;9.90;99.90;;;;;;5034497;28;20586;-69
2021/11/02 13:24:42;;;;;;;0.90;0.80;;;9.80;99.90;;;;;;5034415;28;20247;-69
2021/11/02 13:27:10;;;;;;;1.08;0.80;;;9.80;99.90;;;;;;5033393;28;20283;-69
2021/11/02 13:29:37;;;;;;;2.20;0.90;;;9.70;99.90;;;;;;5034000;28;20205;-69
2021/11/02 13:32:06;;;;;;;1.27;0.75;;;9.60;99.90;;;;;;5033839;28;20287;-69
2021/11/02 13:34:40;;;;;;;0.88;0.80;;;9.50;99.90;;;;;;5034227;28;20213;-69
2021/11/02 13:37:10;;;;;;;1.42;0.80;;;9.40;99.90;;;;;;5033354;28;20237;-69
2021/11/02 13:39:54;;;;;;;0.80;0.80;;;9.30;99.90;;;;;;5034404;28;20209;-69
2021/11/02 13:42:46;;;;;;;0.88;0.75;;;9.30;99.90;;;;;;5032645;28;20618;-69
2021/11/02 13:45:17;;;;;;;1.73;0.70;;;9.20;99.90;;;;;;5055697;22;20993;-93
2021/11/02 13:47:45;;;;;;;1.10;0.80;;;9.20;99.90;;;;;;5048884;28;20201;-93
2021/11/02 13:50:12;;;;;;;0.80;0.70;;;9.20;99.90;;;;;;5049378;28;20209;-94
2021/11/02 13:52:40;;;;;;;0.80;0.70;;;9.10;99.90;;;;;;5049773;28;20297;-93
2021/11/02 13:55:09;;;;;;;1.92;0.77;;;9.00;99.90;;;;;;5051692;28;20281;-93
2021/11/02 13:57:37;;;;;;;1.00;0.88;;;9.00;99.90;;;;;;5049751;28;20261;-94
2021/11/02 14:00:05;;;;;;;0.80;0.70;;;8.90;99.90;;;;;;5049940;28;20293;-94
2021/11/02 14:02:32;;;;;;;1.10;0.77;;;8.90;99.90;;;;;;5048498;28;20208;-94
2021/11/02 14:05:01;;;;;;;0.90;0.70;;;9.00;99.90;;;;;;5050211;28;20588;-94
2021/11/02 14:07:31;;;;;;;1.10;0.70;;;9.20;99.90;;;;;;5048132;28;20683;-94
2021/11/02 14:10:01;;;;;;;1.35;1.17;;;9.50;99.90;;;;;;5047524;28;20671;-94
2021/11/02 14:12:31;;;;;;;2.10;0.90;;;10.10;99.90;;;;;;5049246;28;20206;-94
2021/11/02 14:15:15;;;;;;;0.90;0.70;;;10.40;99.90;;;;;;5048005;28;20226;-93
2021/11/02 14:17:44;;;;;;;0.77;0.60;;;10.60;99.90;;;;;;5045366;28;20198;-93
2021/11/02 14:20:14;;;;;;;0.90;0.70;;;10.80;99.90;;;;;;5047978;28;20201;-94
2021/11/02 14:22:47;;;;;;;1.38;0.80;;;10.60;99.90;;;;;;5045095;28;20402;-94
2021/11/02 14:25:15;;;;;;;0.80;0.60;;;10.40;99.90;;;;;;5049897;28;20229;-94
2021/11/02 14:27:47;;;;;;;1.00;0.80;;;10.40;99.90;;;;;;5046718;28;20205;-94
2021/11/02 14:30:25;;;;;;;0.90;0.80;;;10.40;99.90;;;;;;5047585;28;20667;-94
2021/11/02 14:32:54;;;;;;;0.80;0.70;;;10.10;99.90;;;;;;5043625;28;20205;-93
2021/11/02 14:39:34;;;;;;;1.80;1.10;;;9.90;99.90;;;;;;4997680;28;20209;-94
2021/11/02 14:45:42;;;;;;;0.95;0.80;;;9.70;99.90;;;;;;4992804;28;20320;-94
2021/11/02 14:48:38;;;;;;;1.52;1.10;;;9.70;99.90;;;;;;5036795;28;20201;-91
2021/11/02 14:51:09;;;;;;;1.42;0.90;;;9.60;99.90;;;;;;5045394;28;20220;-94
2021/11/02 14:53:37;;;;;;;1.25;0.95;;;9.50;99.90;;;;;;5057370;28;20198;-95
2021/11/02 14:56:06;;;;;;;1.05;0.90;;;9.50;99.90;;;;;;5042762;28;20238;-93
2021/11/02 14:58:47;;;;;;;0.98;0.80;;;9.40;99.90;;;;;;5040344;28;20206;-93
2021/11/02 15:01:18;;;;;;;0.90;0.80;;;9.30;99.90;;;;;;5039332;28;20548;-93
2021/11/02 15:03:52;;;;;;;1.10;0.80;;;9.10;99.90;;;;;;5036473;28;20699;-93
2021/11/02 15:06:19;;;;;;;1.85;1.20;;;9.00;99.90;;;;;;5039801;28;20626;-93
2021/11/02 15:08:47;;;;;;;1.10;1.00;;;9.00;99.90;;;;;;5044526;28;20224;-94
2021/11/02 15:11:16;;;;;;;1.35;0.93;;;9.00;99.90;;;;;;5040581;28;20225;-94
2021/11/02 15:13:48;;;;;;;1.27;0.80;;;8.90;99.90;;;;;;5038909;28;20210;-94
2021/11/02 15:16:17;;;;;;;1.30;0.90;;;8.80;99.90;;;;;;5042331;28;20225;-94
2021/11/02 15:18:45;;;;;;;1.40;1.00;;;8.70;99.90;;;;;;5053996;22;20639;-71
2021/11/02 15:21:16;;;;;;;1.10;0.70;;;8.70;99.90;;;;;;5010049;28;20195;-71
2021/11/02 15:23:45;;;;;;;1.08;0.80;;;8.70;99.90;;;;;;5011605;28;20260;-70
2021/11/02 15:26:13;;;;;;;1.40;0.88;;;8.60;99.90;;;;;;4998337;28;20223;-71
2021/11/02 15:28:45;;;;;;;0.85;0.70;;;8.50;99.90;;;;;;5009910;28;20202;-71
2021/11/02 15:31:13;;;;;;;1.27;0.90;;;8.50;99.90;;;;;;5011027;28;20230;-70
2021/11/02 15:33:42;;;;;;;1.20;0.80;;;8.50;99.90;;;;;;5009454;28;20206;-70
2021/11/02 15:36:14;;;;;;;2.17;1.17;;;8.40;99.90;;;;;;5010202;28;20222;-71
2021/11/02 15:38:42;;;;;;;0.95;0.80;;;8.50;99.90;;;;;;5010209;28;20213;-71
2021/11/02 15:41:20;;;;;;;1.13;0.80;;;8.40;99.90;;;;;;5010294;28;20693;-71
2021/11/02 15:43:53;;;;;;;0.98;0.70;;;8.40;99.90;;;;;;5010355;28;20264;-71
2021/11/02 15:46:24;;;;;;;1.10;1.00;;;8.30;99.90;;;;;;5010091;28;20233;-71
2021/11/02 15:48:55;;;;;;;1.05;0.82;;;8.30;99.90;;;;;;5010572;28;20257;-71
2021/11/02 15:51:24;;;;;;;1.00;0.80;;;8.30;99.90;;;;;;5010232;28;20265;-72
2021/11/02 15:53:51;;;;;;;1.00;0.80;;;8.20;99.90;;;;;;5010155;28;20199;-71
2021/11/02 15:56:25;;;;;;;1.10;0.80;;;8.20;99.90;;;;;;5010048;28;20246;-70
2021/11/02 15:59:00;;;;;;;1.30;0.90;;;8.30;99.90;;;;;;5009498;28;20216;-70
2021/11/02 16:01:36;;;;;;;1.33;0.80;;;8.30;99.90;;;;;;5011068;28;20394;-71
2021/11/02 16:04:28;;;;;;;0.90;0.80;;;8.20;99.90;;;;;;5010796;28;20198;-71
2021/11/02 16:07:15;;;;;;;1.10;0.85;;;8.20;99.90;;;;;;4986335;28;20237;-71
2021/11/02 16:09:51;;;;;;;0.90;0.80;;;8.10;99.90;;;;;;5002566;28;20202;-70
2021/11/02 16:12:22;;;;;;;1.10;0.90;;;8.10;99.90;;;;;;5010465;28;20617;-68
2021/11/02 16:14:53;;;;;;;1.30;1.20;;;8.10;99.90;;;;;;5009979;28;20211;-71
2021/11/02 16:17:21;;;;;;;0.85;0.70;;;8.00;99.90;;;;;;5009785;28;20226;-70
2021/11/02 16:19:50;;;;;;;1.25;0.90;;;8.00;99.90;;;;;;5009852;28;20214;-70
2021/11/02 16:22:17;;;;;;;1.27;1.00;;;8.00;99.90;;;;;;5009961;28;20578;-70
2021/11/02 16:24:44;;;;;;;0.80;0.80;;;8.00;99.90;;;;;;5009125;28;20260;-73
2021/11/02 16:27:17;;;;;;;1.15;0.98;;;7.90;99.90;;;;;;5009088;28;20241;-72
2021/11/02 16:29:44;;;;;;;1.42;1.10;;;7.90;99.90;;;;;;5008068;28;20505;-72
2021/11/02 16:32:22;;;;;;;1.10;0.95;;;7.90;99.90;;;;;;5009957;28;20767;-73
2021/11/02 16:34:51;;;;;;;2.55;1.33;;;7.80;99.90;;;;;;5009421;28;20202;-72
2021/11/02 16:37:31;;;;;;;1.40;1.20;;;7.70;99.90;;;;;;5010163;28;20226;-71
2021/11/02 16:40:24;;;;;;;1.00;0.88;;;7.70;99.90;;;;;;5009613;28;20584;-73
2021/11/02 16:42:55;;;;;;;1.45;1.13;;;7.70;99.90;;;;;;5012683;28;20197;-72
2021/11/02 16:45:23;;;;;;;1.55;0.95;;;7.60;99.90;;;;;;5013953;28;20212;-72
2021/11/02 16:47:55;;;;;;;2.08;1.00;;;7.60;99.90;;;;;;5027880;28;20204;-72
2021/11/02 16:50:28;;;;;;;1.40;1.25;;;7.60;99.90;;;;;;5029022;28;20209;-71
2021/11/02 16:53:12;;;;;;;1.70;1.45;;;7.60;99.90;;;;;;5028111;28;20240;-73
2021/11/02 16:55:41;;;;;;;1.55;1.40;;;7.60;99.90;;;;;;5013009;28;20249;-73
2021/11/02 16:58:27;;;;;;;1.73;1.30;;;7.60;99.90;;;;;;5009470;28;20286;-73
2021/11/02 17:01:23;;;;;;;3.22;1.30;;;7.60;99.90;;;;;;5009129;28;20314;-73
2021/11/02 17:03:51;;;;;;;1.60;1.25;;;7.60;99.90;;;;;;5008928;28;20230;-73
2021/11/02 17:06:23;;;;;;;1.40;1.20;;;7.60;99.90;;;;;;5008677;28;20233;-72
2021/11/02 17:09:09;;;;;;;1.20;1.08;;;7.60;99.90;;;;;;5009439;28;21203;-73
2021/11/02 17:11:45;;;;;;;2.15;1.67;;;7.60;99.90;;;;;;5008915;28;20230;-72
2021/11/02 17:14:13;;;;;;;1.80;1.40;;;7.60;99.90;;;;;;5009031;28;20202;-73
2021/11/02 17:16:45;;;;;;;2.42;1.40;;;7.50;99.90;;;;;;5008009;28;20391;-73
2021/11/02 17:19:12;;;;;;;1.58;1.38;;;7.50;99.90;;;;;;5008652;28;20233;-72
2021/11/02 17:21:41;;;;;;;1.45;1.35;;;7.50;99.90;;;;;;5009071;28;20206;-73
2021/11/02 17:24:10;;;;;;;2.45;2.35;;;7.50;99.90;;;;;;5008886;28;20204;-73
2021/11/02 17:26:39;;;;;;;1.80;1.30;;;7.50;99.90;;;;;;5008839;28;20237;-71
2021/11/02 17:29:07;;;;;;;1.55;1.38;;;7.40;99.90;;;;;;5012362;28;20645;-73
2021/11/02 17:31:38;;;;;;;2.05;1.30;;;7.40;99.90;;;;;;5001113;28;20595;-72
2021/11/02 17:34:05;;;;;;;1.45;1.33;;;7.30;99.90;;;;;;5007303;28;20217;-71
2021/11/02 17:36:35;;;;;;;1.73;1.30;;;7.30;99.90;;;;;;5007343;28;20607;-72
2021/11/02 17:39:05;;;;;;;1.60;1.50;;;7.30;99.90;;;;;;5008682;28;20254;-72
2021/11/02 17:41:34;;;;;;;2.80;1.73;;;7.30;99.90;;;;;;5008858;28;20206;-73
2021/11/02 17:44:01;;;;;;;4.78;1.80;;;7.30;99.90;;;;;;5008957;28;20284;-73
2021/11/02 17:46:29;;;;;;;2.88;1.50;;;7.30;99.90;;;;;;5008639;28;20253;-73
2021/11/02 17:48:58;;;;;;;2.92;1.75;;;7.30;99.90;;;;;;5009027;28;20264;-73
2021/11/02 17:51:25;;;;;;;2.83;1.30;;;7.20;99.90;;;;;;5008934;28;20206;-72
2021/11/02 17:53:52;;;;;;;1.73;1.60;;;7.10;99.90;;;;;;5008912;28;20249;-73
2021/11/02 17:56:21;;;;;;;3.38;1.75;;;7.10;99.90;;;;;;5009593;28;20222;-72
2021/11/02 17:58:49;;;;;;;2.08;1.73;;;7.10;99.90;;;;;;5012949;28;20670;-72